Latest Weather Observations for Murganella Airstrip

IDD60801

Issued at 2:35 pm CST Wednesday 26 November 2014 (issued every 30 minutes, with the page automatically refreshed every 10 minutes)

About weather observations | Map of weather stations | Latest weather observations for NT | Other Formats
Station Details ID: 014309 Name: MURGANELLA AIRSTRIP Lat: -11.55 Lon: 132.93 Height: 9.5 m
Data from the previous 72 hours. | See also: Recent months for locations in Northern Territory
Date/Time
CST
Temp
°C
App
Temp
°C
Dew
Point
Rel
Hum
%
Delta-T
°C
Wind Press
QNH
hPa
Press
MSL
hPa
Rain
since 9 am
mm
Dir
 
Spd
km/h
Gust
km/h
Spd
kts
Gust
kts
26/02:30pm 33.2 33.3 20.0 45 8.8 NE 19 37 10 20 1006.0 1005.9 0.0
26/02:00pm 31.9 32.8 20.8 51 7.4 NE 17 26 9 14 1006.1 1006.0 0.0
26/01:30pm 33.1 34.2 21.9 51 7.6 NE 19 35 10 19 1006.5 1006.4 0.0
26/01:00pm 32.9 34.2 21.7 51 7.6 NE 17 24 9 13 1007.0 1006.9 0.0
26/12:30pm 33.8 36.0 22.6 52 7.7 NE 15 26 8 14 1007.6 1007.5 0.0
26/12:00pm 32.6 34.2 22.1 54 7.2 ENE 17 30 9 16 1008.0 1007.9 0.0
26/11:30am 33.8 36.2 22.2 50 7.9 ENE 13 22 7 12 1008.2 1008.1 0.0
26/11:00am 32.5 34.8 21.4 52 7.5 E 11 26 6 14 1008.6 1008.5 0.0
26/10:30am 31.7 35.3 23.0 60 6.0 NNE 9 17 5 9 1008.9 1008.8 0.0
26/10:00am 29.6 31.9 22.1 64 5.1 NE 13 19 7 10 1009.2 1009.1 0.0
26/09:30am 31.0 35.8 22.9 62 5.6 ENE 2 11 1 6 1009.0 1008.9 0.0
26/09:00am 31.1 36.0 23.7 64 5.1 E 4 9 2 5 1008.8 1008.7 0.0
26/08:30am 30.1 35.2 24.0 70 4.2 E 4 6 2 3 1008.8 1008.7 0.0
26/08:00am 29.4 34.7 24.3 74 3.5 ESE 4 6 2 3 1008.5 1008.4 0.0
26/07:30am 27.5 32.8 24.4 83 2.2 S 4 6 2 3 1008.2 1008.1 0.0
26/07:00am 25.8 31.8 24.8 94 0.7 SSW 2 4 1 2 1008.0 1007.9 0.0
26/06:30am 24.1 30.0 24.1 100 0.0 CALM 0 0 0 0 1007.6 1007.5 0.0
26/06:00am 23.6 29.1 23.4 99 0.1 CALM 0 0 0 0 1007.3 1007.2 0.0
26/05:30am 23.7 29.2 23.4 98 0.2 CALM 0 0 0 0 1007.1 1007.0 0.0
26/05:00am 24.2 29.9 23.7 97 0.3 CALM 0 0 0 0 1006.9 1006.8 0.0
26/04:30am 24.4 30.2 23.9 97 0.3 CALM 0 0 0 0 1006.7 1006.6 0.0
26/04:00am 24.3 29.7 23.3 94 0.7 CALM 0 0 0 0 1006.6 1006.5 0.0
26/03:30am 24.7 30.4 23.7 94 0.7 CALM 0 4 0 2 1006.7 1006.6 0.0
26/03:00am 24.6 29.6 23.2 92 1.0 SW 2 6 1 3 1006.7 1006.6 0.0
26/02:30am 24.5 29.8 23.1 92 0.9 CALM 0 0 0 0 1006.7 1006.6 0.0
26/02:00am 24.8 29.9 22.7 88 1.4 CALM 0 0 0 0 1006.9 1006.8 0.0
26/01:30am 25.4 30.5 22.7 85 1.8 CALM 0 0 0 0 1007.2 1007.1 0.0
26/01:00am 25.3 30.5 22.8 86 1.7 CALM 0 0 0 0 1007.5 1007.4 0.0
26/12:30am 25.5 30.7 22.8 85 1.8 CALM 0 0 0 0 1007.8 1007.7 0.0
26/12:00am 25.6 30.8 22.9 85 1.8 CALM 0 0 0 0 1008.0 1007.9 0.0
 
Date/Time
CST
Temp
°C
App
Temp
°C
Dew
Point
Rel
Hum
%
Delta-T
°C
Wind Press
QNH
hPa
Press
MSL
hPa
Rain
since 9 am
mm
Dir
 
Spd
km/h
Gust
km/h
Spd
kts
Gust
kts
25/11:30pm 25.5 30.8 23.0 86 1.7 CALM 0 0 0 0 1008.2 1008.1 0.0
25/11:00pm 25.7 31.0 23.0 85 1.8 CALM 0 0 0 0 1008.2 1008.1 0.0
25/10:30pm 26.2 31.3 22.7 81 2.4 CALM 0 0 0 0 1008.2 1008.1 0.0
25/10:00pm 26.4 31.6 22.9 81 2.4 CALM 0 0 0 0 1008.0 1007.9 0.0
25/09:30pm 26.4 31.7 23.1 82 2.2 CALM 0 0 0 0 1008.0 1007.9 0.0
25/09:00pm 27.2 32.3 22.6 76 3.1 CALM 0 0 0 0 1008.0 1007.9 0.0
25/08:30pm 28.0 32.8 22.2 70 3.9 CALM 0 0 0 0 1007.9 1007.8 0.0
25/08:00pm 28.3 33.1 22.1 69 4.2 CALM 0 4 0 2 1007.4 1007.3 0.0
25/07:30pm 28.5 32.5 22.0 68 4.4 N 4 7 2 4 1007.0 1006.9 0.0
25/07:00pm 29.1 32.9 21.6 64 5.0 NNE 4 7 2 4 1007.3 1007.2 0.0
25/06:30pm 29.8 32.8 20.9 59 5.9 N 6 9 3 5 1007.1 1007.0 0.0
25/06:00pm 30.3 32.4 20.2 54 6.7 NNE 9 13 5 7 1007.2 1007.1 0.0
25/05:30pm 31.1 33.8 21.3 56 6.6 NNE 9 15 5 8 1006.9 1006.8 0.0
25/05:00pm 31.5 34.5 21.9 56 6.5 NNE 9 17 5 9 1006.5 1006.4 0.0
25/04:30pm 32.3 35.2 22.4 56 6.8 N 11 20 6 11 1005.9 1005.8 0.0
25/04:00pm 31.4 33.7 22.1 57 6.3 NNE 13 19 7 10 1006.2 1006.1 0.0
25/03:30pm 31.2 33.7 22.5 60 6.0 N 13 22 7 12 1005.9 1005.8 0.0
25/03:00pm 31.3 33.5 21.2 55 6.8 NNE 11 17 6 9 1006.0 1005.9 0.0
25/02:30pm 31.5 33.6 21.7 56 6.6 NE 13 20 7 11 1006.1 1006.0 0.0
25/02:00pm 33.4 35.0 22.2 52 7.7 NE 17 28 9 15 1006.5 1006.4 0.0
25/01:30pm 33.1 35.1 21.6 51 7.8 ENE 13 26 7 14 1007.2 1007.1 0.0
25/01:00pm 34.1 36.6 22.5 50 8.0 NE 13 24 7 13 1008.0 1007.9 0.0
25/12:30pm 34.2 36.1 21.3 47 8.7 NE 13 26 7 14 1008.3 1008.2 0.0
25/12:00pm 33.4 35.1 20.9 48 8.4 NE 13 24 7 13 1008.5 1008.4 0.0
25/11:30am 33.2 36.4 22.3 52 7.5 NE 9 19 5 10 1008.7 1008.6 0.0
25/11:00am 32.5 35.8 23.2 58 6.4 ENE 11 17 6 9 1009.1 1009.0 0.0
25/10:30am 32.4 36.3 23.6 59 6.1 NNE 9 15 5 8 1009.3 1009.2 0.0
25/10:00am 32.1 35.4 22.5 57 6.6 E 9 19 5 10 1009.3 1009.2 0.0
25/09:30am 32.8 35.1 21.3 50 7.8 NNE 11 20 6 11 1009.3 1009.2 0.0
25/09:00am 31.4 34.6 21.6 56 6.6 ENE 7 15 4 8 1009.4 1009.3 0.0
25/08:30am 30.5 34.3 23.4 66 4.9 ENE 9 17 5 9 1009.3 1009.2 0.0
25/08:00am 30.1 35.4 24.9 73 3.6 E 6 7 3 4 1009.0 1008.9 0.0
25/07:30am 28.3 34.3 25.5 85 2.0 E 4 6 2 3 1009.1 1009.0 0.0
25/07:00am 24.9 31.1 24.6 98 0.2 CALM 0 0 0 0 1008.9 1008.8 0.0
25/06:30am 23.7 29.3 23.5 99 0.1 CALM 0 0 0 0 1008.5 1008.4 0.0
25/06:00am 23.6 28.8 22.9 96 0.5 CALM 0 0 0 0 1008.2 1008.1 0.0
25/05:30am 23.8 29.2 23.3 97 0.3 CALM 0 0 0 0 1008.0 1007.9 0.0
25/05:00am 23.9 29.0 22.7 93 0.8 CALM 0 0 0 0 1008.0 1007.9 0.0
25/04:30am 24.1 29.3 22.9 93 0.8 CALM 0 0 0 0 1007.9 1007.8 0.0
25/04:00am 24.4 29.8 23.2 93 0.8 CALM 0 0 0 0 1007.7 1007.6 0.0
25/03:30am 24.4 29.8 23.2 93 0.8 CALM 0 0 0 0 1007.3 1007.2 0.0
25/03:00am 24.7 30.4 23.7 94 0.7 CALM 0 0 0 0 1007.6 1007.5 0.0
25/02:30am 24.9 30.3 23.3 91 1.1 CALM 0 0 0 0 1007.7 1007.6 0.0
25/02:00am 25.3 30.8 23.4 89 1.3 CALM 0 0 0 0 1008.2 1008.1 0.0
25/01:30am 25.4 31.0 23.5 89 1.3 CALM 0 0 0 0 1008.4 1008.3 0.0
25/01:00am 25.5 31.1 23.6 89 1.3 CALM 0 0 0 0 1008.9 1008.8 0.0
25/12:30am 26.0 31.6 23.5 86 1.7 CALM 0 0 0 0 1009.3 1009.2 0.0
25/12:00am 26.8 31.9 23.3 81 2.4 W 2 4 1 2 1009.8 1009.7 0.0
 
Date/Time
CST
Temp
°C
App
Temp
°C
Dew
Point
Rel
Hum
%
Delta-T
°C
Wind Press
QNH
hPa
Press
MSL
hPa
Rain
since 9 am
mm
Dir
 
Spd
km/h
Gust
km/h
Spd
kts
Gust
kts
24/11:30pm 26.9 31.6 23.4 81 2.4 SW 4 7 2 4 1010.2 1010.1 0.0
24/11:00pm 26.8 32.0 23.5 82 2.3 WSW 2 6 1 3 1010.0 1009.9 0.0
24/10:30pm 26.2 31.8 23.5 85 1.8 CALM 0 0 0 0 1009.8 1009.7 0.0
24/10:00pm 26.1 31.5 23.2 84 2.0 CALM 0 0 0 0 1009.6 1009.5 0.0
24/09:30pm 27.0 32.6 23.5 81 2.4 CALM 0 0 0 0 1009.6 1009.5 0.0
24/09:00pm 27.4 32.8 23.2 78 2.9 CALM 0 0 0 0 1009.2 1009.1 0.0
24/08:30pm 27.5 32.6 22.7 75 3.3 CALM 0 0 0 0 1008.9 1008.8 0.0
24/08:00pm 28.3 32.9 22.5 71 3.9 NNW 2 4 1 2 1008.4 1008.3 0.0
24/07:30pm 28.5 32.5 22.7 71 3.9 N 6 9 3 5 1008.1 1008.0 0.0
24/07:00pm 28.7 32.5 22.4 68 4.3 N 6 11 3 6 1007.8 1007.7 0.0
24/06:30pm 29.4 32.9 22.1 65 4.9 N 7 13 4 7 1007.4 1007.3 0.0
24/06:00pm 30.0 33.0 21.9 62 5.5 NNE 9 17 5 9 1007.1 1007.0 0.0
24/05:30pm 30.7 33.0 22.0 59 5.9 N 13 28 7 15 1006.5 1006.4 0.0
24/05:00pm 31.0 32.6 21.5 57 6.4 NNE 15 26 8 14 1006.4 1006.3 0.0
24/04:30pm 31.6 33.2 21.5 55 6.8 NNE 15 26 8 14 1006.1 1006.0 0.0
24/04:00pm 32.2 33.1 20.8 51 7.6 NNE 17 28 9 15 1006.3 1006.2 0.0
24/03:30pm 32.1 32.7 21.0 52 7.5 NNE 19 28 10 15 1006.4 1006.3 0.0
24/03:00pm 33.5 34.7 20.6 46 8.7 NE 15 26 8 14 1006.7 1006.6 0.0
24/02:30pm 34.0 35.2 20.7 45 8.9 NE 15 26 8 14 1007.3 1007.2 0.0
24/02:00pm 34.5 35.8 20.8 44 9.2 NE 15 24 8 13 1007.9 1007.8 0.0
24/01:30pm 34.7 35.5 19.1 39 10.3 NE 13 24 7 13 1008.5 1008.4 0.0
24/01:00pm 34.1 36.0 20.5 45 9.1 ENE 11 20 6 11 1009.1 1009.0 0.0
24/12:30pm 34.3 36.3 20.7 45 9.1 NNE 11 19 6 10 1009.6 1009.5 0.0
24/12:00pm 33.9 36.6 20.6 45 8.9 NE 7 15 4 8 1010.1 1010.0 0.0
24/11:30am 34.9 37.9 21.9 46 8.9 ENE 9 22 5 12 1010.4 1010.3 0.0
24/11:00am 34.0 35.1 18.1 39 10.3 NE 9 19 5 10 1010.8 1010.7 0.0
24/10:30am 32.9 35.5 20.1 47 8.5 NNE 6 13 3 7 1010.9 1010.8 0.0
24/10:00am 32.1 35.6 22.8 58 6.4 N 9 17 5 9 1011.0 1010.9 0.0
24/09:30am 30.6 34.5 23.0 64 5.2 N 7 13 4 7 1010.8 1010.7 0.0
24/09:00am 31.4 35.6 23.5 63 5.5 NE 7 13 4 7 1010.7 1010.6 0.0
24/08:30am 30.3 35.9 24.2 70 4.2 SE 2 6 1 3 1010.5 1010.4 0.0
24/08:00am 28.9 35.3 24.9 79 2.8 CALM 0 2 0 1 1010.5 1010.4 0.0
24/07:30am 26.6 32.3 25.0 91 1.1 SSW 4 6 2 3 1010.4 1010.3 0.0
24/07:00am 25.3 31.8 25.0 98 0.2 CALM 0 0 0 0 1010.0 1009.9 0.0
24/06:30am 23.6 29.1 23.4 99 0.1 CALM 0 0 0 0 1009.7 1009.6 0.0
24/06:00am 23.3 28.6 23.0 98 0.2 CALM 0 0 0 0 1009.7 1009.6 0.0
24/05:30am 23.5 28.7 22.8 96 0.5 CALM 0 0 0 0 1009.6 1009.5 0.0
24/05:00am 23.8 29.1 23.1 96 0.5 CALM 0 0 0 0 1009.4 1009.3 0.0
24/04:30am 23.9 29.3 23.2 96 0.5 CALM 0 0 0 0 1008.9 1008.8 0.0
24/04:00am 24.1 29.5 23.2 95 0.6 CALM 0 0 0 0 1009.0 1008.9 0.0
24/03:30am 24.1 29.4 23.1 94 0.7 CALM 0 0 0 0 1008.8 1008.7 0.0
24/03:00am 24.3 29.6 23.1 93 0.8 CALM 0 0 0 0 1008.9 1008.8 0.0
24/02:30am 24.8 30.4 23.6 93 0.8 CALM 0 0 0 0 1009.0 1008.9 0.0
24/02:00am 25.3 31.1 23.9 92 1.0 CALM 0 0 0 0 1009.1 1009.0 0.0
24/01:30am 25.4 31.0 23.5 89 1.3 CALM 0 0 0 0 1009.1 1009.0 0.0
24/01:00am 26.0 31.8 24.0 89 1.4 CALM 0 0 0 0 1009.4 1009.3 0.0
24/12:30am 26.3 31.9 24.2 88 1.4 NNE 2 4 1 2 1009.7 1009.6 0.0
24/12:00am 26.8 32.3 24.6 88 1.5 NNE 4 7 2 4 1009.9 1009.8 0.0
 
Date/Time
CST
Temp
°C
App
Temp
°C
Dew
Point
Rel
Hum
%
Delta-T
°C
Wind Press
QNH
hPa
Press
MSL
hPa
Rain
since 9 am
mm
Dir
 
Spd
km/h
Gust
km/h
Spd
kts
Gust
kts
23/11:30pm 26.7 32.1 24.5 88 1.5 N 4 6 2 3 1009.8 1009.7 0.0
23/11:00pm 26.8 32.2 24.5 87 1.6 NNE 4 7 2 4 1009.8 1009.7 0.0
23/10:30pm 27.2 32.5 24.3 84 2.0 NNE 4 7 2 4 1009.7 1009.6 0.0
23/10:00pm 27.4 32.7 24.3 83 2.1 NNE 4 9 2 5 1009.7 1009.6 0.0
23/09:30pm 27.6 32.4 24.4 83 2.2 NNE 7 15 4 8 1009.5 1009.4 0.0
23/09:00pm 27.6 32.2 24.2 82 2.4 NNE 7 19 4 10 1009.3 1009.2 0.0
23/08:30pm 27.8 31.9 24.0 80 2.6 NNE 9 19 5 10 1009.0 1008.9 0.0
23/08:00pm 28.0 32.1 24.0 79 2.8 NNE 9 19 5 10 1008.7 1008.6 0.0
23/07:30pm 28.1 32.0 24.3 80 2.6 NNE 11 19 6 10 1008.4 1008.3 0.0
23/07:00pm 28.5 32.0 23.6 75 3.4 NNE 11 19 6 10 1008.2 1008.1 0.0
23/06:30pm 29.1 31.8 22.8 69 4.3 NE 13 24 7 13 1007.9 1007.8 0.0
23/06:00pm 30.0 32.4 22.2 63 5.3 NE 13 22 7 12 1008.0 1007.9 0.0
23/05:30pm 30.9 33.0 22.5 61 5.7 NE 15 28 8 15 1008.2 1008.1 0.0
23/05:00pm 31.6 32.9 21.7 55 6.7 NE 17 24 9 13 1008.0 1007.9 0.0
23/04:30pm 32.0 32.6 20.3 50 7.8 NNE 17 28 9 15 1007.9 1007.8 0.0
23/04:00pm 33.0 34.0 20.2 47 8.5 NE 15 26 8 14 1007.9 1007.8 0.0
23/03:30pm 33.8 32.8 17.5 38 10.5 NE 19 32 10 17 1008.0 1007.9 0.0
23/03:00pm 34.8 34.6 18.4 38 10.7 NE 17 26 9 14 1008.2 1008.1 0.0

Other Formats:

Comma delimited format used in spreadsheet applications
http://www.bom.gov.au/fwo/IDD60801/IDD60801.94109.axf

JavaScript Object Notation format (JSON) in row-major order
http://www.bom.gov.au/fwo/IDD60801/IDD60801.94109.json